sensor_id;sensor_type;location;lat;lon;timestamp;pressure;altitude;pressure_sealevel;temperature;humidity
55660;BME280;41534;53.550;9.964;2024-02-15T00:01:26;101158.25;;;22.93;45.57
55660;BME280;41534;53.550;9.964;2024-02-15T00:04:26;101160.53;;;22.90;45.83
55660;BME280;41534;53.550;9.964;2024-02-15T00:07:27;101166.38;;;22.86;45.78
55660;BME280;41534;53.550;9.964;2024-02-15T00:10:27;101164.25;;;22.82;45.81
55660;BME280;41534;53.550;9.964;2024-02-15T00:13:27;101169.06;;;22.80;45.75
55660;BME280;41534;53.550;9.964;2024-02-15T00:16:28;101166.72;;;22.77;46.15
55660;BME280;41534;53.550;9.964;2024-02-15T00:19:28;101168.81;;;22.75;46.18
55660;BME280;41534;53.550;9.964;2024-02-15T00:22:28;101166.66;;;22.70;46.22
55660;BME280;41534;53.550;9.964;2024-02-15T00:25:29;101168.56;;;22.70;46.38
55660;BME280;41534;53.550;9.964;2024-02-15T00:28:29;101172.53;;;22.67;46.75
55660;BME280;41534;53.550;9.964;2024-02-15T00:31:29;101170.00;;;22.66;46.96
55660;BME280;41534;53.550;9.964;2024-02-15T00:34:29;101164.94;;;22.63;46.98
55660;BME280;41534;53.550;9.964;2024-02-15T00:37:30;101164.09;;;22.62;46.85
55660;BME280;41534;53.550;9.964;2024-02-15T00:40:30;101160.91;;;22.59;46.73
55660;BME280;41534;53.550;9.964;2024-02-15T00:43:34;101168.47;;;22.56;47.00
55660;BME280;41534;53.550;9.964;2024-02-15T00:46:34;101171.56;;;22.53;46.82
55660;BME280;41534;53.550;9.964;2024-02-15T00:49:35;101168.19;;;22.51;47.11
55660;BME280;41534;53.550;9.964;2024-02-15T00:52:36;101165.66;;;22.50;46.99
55660;BME280;41534;53.550;9.964;2024-02-15T00:55:36;101171.53;;;22.47;47.10
55660;BME280;41534;53.550;9.964;2024-02-15T00:58:36;101167.31;;;22.44;47.09
55660;BME280;41534;53.550;9.964;2024-02-15T01:01:37;101173.81;;;22.43;46.88
55660;BME280;41534;53.550;9.964;2024-02-15T01:04:37;101178.63;;;22.41;47.10
55660;BME280;41534;53.550;9.964;2024-02-15T01:07:38;101180.88;;;22.38;47.01
55660;BME280;41534;53.550;9.964;2024-02-15T01:10:38;101172.06;;;22.36;47.01
55660;BME280;41534;53.550;9.964;2024-02-15T01:13:38;101185.06;;;22.34;47.05
55660;BME280;41534;53.550;9.964;2024-02-15T01:16:39;101178.94;;;22.32;46.92
55660;BME280;41534;53.550;9.964;2024-02-15T01:19:39;101182.91;;;22.29;46.94
55660;BME280;41534;53.550;9.964;2024-02-15T01:22:39;101176.81;;;22.27;47.10
55660;BME280;41534;53.550;9.964;2024-02-15T01:25:40;101177.00;;;22.25;47.24
55660;BME280;41534;53.550;9.964;2024-02-15T01:28:40;101182.88;;;22.22;47.18
55660;BME280;41534;53.550;9.964;2024-02-15T01:31:40;101169.38;;;22.21;47.11
55660;BME280;41534;53.550;9.964;2024-02-15T01:34:41;101176.72;;;22.20;47.22
55660;BME280;41534;53.550;9.964;2024-02-15T01:37:41;101173.34;;;22.18;47.12
55660;BME280;41534;53.550;9.964;2024-02-15T01:40:41;101174.59;;;22.16;47.15
55660;BME280;41534;53.550;9.964;2024-02-15T01:43:44;101173.75;;;22.15;47.45
55660;BME280;41534;53.550;9.964;2024-02-15T01:46:45;101175.00;;;22.13;47.33
55660;BME280;41534;53.550;9.964;2024-02-15T01:49:47;101172.47;;;22.11;47.43
55660;BME280;41534;53.550;9.964;2024-02-15T01:52:49;101169.94;;;22.10;47.16
55660;BME280;41534;53.550;9.964;2024-02-15T01:55:53;101182.94;;;22.08;47.41
55660;BME280;41534;53.550;9.964;2024-02-15T01:58:53;101180.41;;;22.06;47.26
55660;BME280;41534;53.550;9.964;2024-02-15T02:01:54;101177.88;;;22.05;47.45
55660;BME280;41534;53.550;9.964;2024-02-15T02:04:54;101169.16;;;22.01;47.29
55660;BME280;41534;53.550;9.964;2024-02-15T02:07:55;101175.00;;;21.98;47.27
55660;BME280;41534;53.550;9.964;2024-02-15T02:10:55;101174.38;;;21.96;46.90
55660;BME280;41534;53.550;9.964;2024-02-15T02:13:56;101173.72;;;21.94;47.03
55660;BME280;41534;53.550;9.964;2024-02-15T02:17:10;101169.31;;;21.93;47.17
55660;BME280;41534;53.550;9.964;2024-02-15T02:20:11;101166.97;;;21.90;47.25
55660;BME280;41534;53.550;9.964;2024-02-15T02:23:15;101171.78;;;21.88;46.98
55660;BME280;41534;53.550;9.964;2024-02-15T02:26:16;101162.91;;;21.86;47.03
55660;BME280;41534;53.550;9.964;2024-02-15T02:29:16;101165.84;;;21.84;46.91
55660;BME280;41534;53.550;9.964;2024-02-15T02:32:16;101167.06;;;21.82;46.95
55660;BME280;41534;53.550;9.964;2024-02-15T02:35:17;101170.00;;;21.80;47.01
55660;BME280;41534;53.550;9.964;2024-02-15T02:38:18;101173.94;;;21.78;47.11
55660;BME280;41534;53.550;9.964;2024-02-15T02:41:19;101172.47;;;21.75;47.06
55660;BME280;41534;53.550;9.964;2024-02-15T02:44:19;101170.13;;;21.72;46.73
55660;BME280;41534;53.550;9.964;2024-02-15T02:47:19;101174.94;;;21.70;47.17
55660;BME280;41534;53.550;9.964;2024-02-15T02:50:22;101176.13;;;21.67;47.03
55660;BME280;41534;53.550;9.964;2024-02-15T02:53:24;101168.13;;;21.66;47.07
55660;BME280;41534;53.550;9.964;2024-02-15T02:56:24;101163.91;;;21.63;46.77
55660;BME280;41534;53.550;9.964;2024-02-15T02:59:24;101158.66;;;21.62;47.01
55660;BME280;41534;53.550;9.964;2024-02-15T03:02:24;101162.63;;;21.59;47.08
55660;BME280;41534;53.550;9.964;2024-02-15T03:05:27;101157.34;;;21.58;47.00
55660;BME280;41534;53.550;9.964;2024-02-15T03:08:28;101171.00;;;21.58;46.92
55660;BME280;41534;53.550;9.964;2024-02-15T03:11:28;101164.88;;;21.56;46.92
55660;BME280;41534;53.550;9.964;2024-02-15T03:14:28;101174.31;;;21.53;46.98
55660;BME280;41534;53.550;9.964;2024-02-15T03:17:29;101176.34;;;21.51;47.06
55660;BME280;41534;53.550;9.964;2024-02-15T03:20:29;101175.50;;;21.51;46.92
55660;BME280;41534;53.550;9.964;2024-02-15T03:23:29;101178.44;;;21.49;46.99
55660;BME280;41534;53.550;9.964;2024-02-15T03:26:31;101170.44;;;21.48;47.14
55660;BME280;41534;53.550;9.964;2024-02-15T03:29:31;101179.84;;;21.45;46.99
55660;BME280;41534;53.550;9.964;2024-02-15T03:32:31;101182.56;;;21.45;47.01
55660;BME280;41534;53.550;9.964;2024-02-15T03:35:32;101186.53;;;21.43;47.03
55660;BME280;41534;53.550;9.964;2024-02-15T03:38:32;101184.00;;;21.41;47.09
55660;BME280;41534;53.550;9.964;2024-02-15T03:41:32;101186.91;;;21.40;47.16
55660;BME280;41534;53.550;9.964;2024-02-15T03:44:32;101193.41;;;21.39;46.91
55660;BME280;41534;53.550;9.964;2024-02-15T03:47:33;101195.47;;;21.36;47.29
55660;BME280;41534;53.550;9.964;2024-02-15T03:50:33;101197.53;;;21.34;46.98
55660;BME280;41534;53.550;9.964;2024-02-15T03:53:33;101189.34;;;21.34;47.06
55660;BME280;41534;53.550;9.964;2024-02-15T03:56:33;101184.94;;;21.33;47.09
55660;BME280;41534;53.550;9.964;2024-02-15T03:59:34;101192.44;;;21.31;46.90
55660;BME280;41534;53.550;9.964;2024-02-15T04:02:34;101189.91;;;21.30;47.23
55660;BME280;41534;53.550;9.964;2024-02-15T04:05:34;101199.97;;;21.29;47.13
55660;BME280;41534;53.550;9.964;2024-02-15T04:08:37;101198.28;;;21.28;46.93
55660;BME280;41534;53.550;9.964;2024-02-15T04:11:37;101194.06;;;21.26;47.29
55660;BME280;41534;53.550;9.964;2024-02-15T04:14:38;101195.09;;;21.25;47.09
55660;BME280;41534;53.550;9.964;2024-02-15T04:17:38;101196.97;;;21.24;47.19
55660;BME280;41534;53.550;9.964;2024-02-15T04:20:38;101190.84;;;21.22;47.11
55660;BME280;41534;53.550;9.964;2024-02-15T04:23:40;101194.59;;;21.21;47.12
55660;BME280;41534;53.550;9.964;2024-02-15T04:26:41;101199.41;;;21.19;47.23
55660;BME280;41534;53.550;9.964;2024-02-15T04:29:41;101205.03;;;21.18;47.17
55660;BME280;41534;53.550;9.964;2024-02-15T04:32:42;101216.94;;;21.17;47.11
55660;BME280;41534;53.550;9.964;2024-02-15T04:35:42;101218.81;;;21.16;47.16
55660;BME280;41534;53.550;9.964;2024-02-15T04:38:43;101227.19;;;21.15;47.19
55660;BME280;41534;53.550;9.964;2024-02-15T04:41:43;101221.94;;;21.13;47.21
55660;BME280;41534;53.550;9.964;2024-02-15T04:44:44;101224.84;;;21.12;47.24
55660;BME280;41534;53.550;9.964;2024-02-15T04:47:44;101220.44;;;21.11;47.20
55660;BME280;41534;53.550;9.964;2024-02-15T04:50:44;101234.06;;;21.11;47.18
55660;BME280;41534;53.550;9.964;2024-02-15T04:53:45;101230.69;;;21.08;46.76
55660;BME280;41534;53.550;9.964;2024-02-15T04:56:45;101231.91;;;21.06;47.11
55660;BME280;41534;53.550;9.964;2024-02-15T04:59:46;101227.28;;;21.06;47.18
55660;BME280;41534;53.550;9.964;2024-02-15T05:02:46;101229.38;;;21.04;47.29
55660;BME280;41534;53.550;9.964;2024-02-15T05:05:46;101232.09;;;21.04;47.37
55660;BME280;41534;53.550;9.964;2024-02-15T05:08:47;101242.34;;;21.02;47.45
55660;BME280;41534;53.550;9.964;2024-02-15T05:11:47;101240.63;;;21.01;47.26
55660;BME280;41534;53.550;9.964;2024-02-15T05:14:47;101225.31;;;21.00;47.27
55660;BME280;41534;53.550;9.964;2024-02-15T05:17:48;101231.97;;;20.98;47.27
55660;BME280;41534;53.550;9.964;2024-02-15T05:20:48;101226.50;;;20.98;47.30
55660;BME280;41534;53.550;9.964;2024-02-15T05:23:48;101229.63;;;20.95;47.31
55660;BME280;41534;53.550;9.964;2024-02-15T05:26:49;101227.75;;;20.95;47.20
55660;BME280;41534;53.550;9.964;2024-02-15T05:29:49;101228.97;;;20.93;47.41
55660;BME280;41534;53.550;9.964;2024-02-15T05:32:49;101218.25;;;20.91;47.21
55660;BME280;41534;53.550;9.964;2024-02-15T05:35:49;101214.88;;;20.89;47.49
55660;BME280;41534;53.550;9.964;2024-02-15T05:38:53;101215.72;;;20.90;47.55
55660;BME280;41534;53.550;9.964;2024-02-15T05:41:53;101220.50;;;20.88;47.42
55660;BME280;41534;53.550;9.964;2024-02-15T05:44:53;101216.09;;;20.87;47.34
55660;BME280;41534;53.550;9.964;2024-02-15T05:47:54;101214.41;;;20.86;47.44
55660;BME280;41534;53.550;9.964;2024-02-15T05:50:55;101211.69;;;20.86;47.30
55660;BME280;41534;53.550;9.964;2024-02-15T05:53:55;101211.03;;;20.84;47.36
55660;BME280;41534;53.550;9.964;2024-02-15T05:56:56;101209.34;;;20.83;47.33
55660;BME280;41534;53.550;9.964;2024-02-15T05:59:56;101211.19;;;20.82;47.40
55660;BME280;41534;53.550;9.964;2024-02-15T06:02:56;101220.38;;;20.81;47.55
55660;BME280;41534;53.550;9.964;2024-02-15T06:05:57;101214.28;;;20.79;47.48
55660;BME280;41534;53.550;9.964;2024-02-15T06:08:57;101212.41;;;20.80;47.48
55660;BME280;41534;53.550;9.964;2024-02-15T06:11:57;101222.63;;;20.77;47.63
55660;BME280;41534;53.550;9.964;2024-02-15T06:14:58;101221.78;;;20.77;47.32
55660;BME280;41534;53.550;9.964;2024-02-15T06:17:58;101231.84;;;20.76;47.66
55660;BME280;41534;53.550;9.964;2024-02-15T06:20:59;101223.84;;;20.75;47.54
55660;BME280;41534;53.550;9.964;2024-02-15T06:23:59;101215.88;;;20.73;47.53
55660;BME280;41534;53.550;9.964;2024-02-15T06:26:59;101225.06;;;20.72;47.63
55660;BME280;41534;53.550;9.964;2024-02-15T06:30:00;101226.09;;;20.71;47.48
55660;BME280;41534;53.550;9.964;2024-02-15T06:33:00;101224.41;;;20.70;47.70
55660;BME280;41534;53.550;9.964;2024-02-15T06:36:05;101225.25;;;20.71;47.64
55660;BME280;41534;53.550;9.964;2024-02-15T06:39:05;101231.75;;;20.70;47.43
55660;BME280;41534;53.550;9.964;2024-02-15T06:42:06;101222.91;;;20.68;47.60
55660;BME280;41534;53.550;9.964;2024-02-15T06:45:07;101226.66;;;20.67;47.67
55660;BME280;41534;53.550;9.964;2024-02-15T06:48:07;101229.56;;;20.65;47.76
55660;BME280;41534;53.550;9.964;2024-02-15T06:51:07;101216.97;;;20.64;47.81
55660;BME280;41534;53.550;9.964;2024-02-15T06:54:08;101219.03;;;20.62;47.69
55660;BME280;41534;53.550;9.964;2024-02-15T06:57:08;101228.22;;;20.61;47.67
55660;BME280;41534;53.550;9.964;2024-02-15T07:00:09;101226.34;;;20.62;47.86
55660;BME280;41534;53.550;9.964;2024-02-15T07:03:10;101228.22;;;20.61;47.64
55660;BME280;41534;53.550;9.964;2024-02-15T07:06:10;101230.28;;;20.59;47.84
55660;BME280;41534;53.550;9.964;2024-02-15T07:09:11;101226.72;;;20.59;47.92
55660;BME280;41534;53.550;9.964;2024-02-15T07:12:11;101228.59;;;20.58;47.87
55660;BME280;41534;53.550;9.964;2024-02-15T07:15:12;101228.78;;;20.57;48.23
55660;BME280;41534;53.550;9.964;2024-02-15T07:18:12;101236.94;;;20.57;47.88
55660;BME280;41534;53.550;9.964;2024-02-15T07:21:15;101242.59;;;20.55;47.88
55660;BME280;41534;53.550;9.964;2024-02-15T07:24:16;101228.97;;;20.55;47.67
55660;BME280;41534;53.550;9.964;2024-02-15T07:27:16;101231.88;;;20.54;47.87
55660;BME280;41534;53.550;9.964;2024-02-15T07:30:16;101233.75;;;20.53;47.83
55660;BME280;41534;53.550;9.964;2024-02-15T07:33:17;101234.78;;;20.52;47.91
55660;BME280;41534;53.550;9.964;2024-02-15T07:36:18;101232.06;;;20.52;47.81
55660;BME280;41534;53.550;9.964;2024-02-15T07:39:19;101233.09;;;20.51;47.82
55660;BME280;41534;53.550;9.964;2024-02-15T07:42:19;101242.28;;;20.50;47.93
55660;BME280;41534;53.550;9.964;2024-02-15T07:45:19;101240.59;;;20.49;47.88
55660;BME280;41534;53.550;9.964;2024-02-15T07:48:19;101239.75;;;20.49;47.99
55660;BME280;41534;53.550;9.964;2024-02-15T07:51:22;101248.91;;;20.47;47.97
55660;BME280;41534;53.550;9.964;2024-02-15T07:54:23;101235.31;;;20.47;47.66
55660;BME280;41534;53.550;9.964;2024-02-15T07:57:23;101240.75;;;20.47;48.01
55660;BME280;41534;53.550;9.964;2024-02-15T08:00:24;101241.78;;;20.46;47.95
55660;BME280;41534;53.550;9.964;2024-02-15T08:03:24;101248.25;;;20.45;48.01
55660;BME280;41534;53.550;9.964;2024-02-15T08:06:24;101256.63;;;20.44;47.97
55660;BME280;41534;53.550;9.964;2024-02-15T08:09:24;101250.31;;;20.43;48.02
55660;BME280;41534;53.550;9.964;2024-02-15T08:12:25;101254.91;;;20.43;47.96
55660;BME280;41534;53.550;9.964;2024-02-15T08:15:25;101258.66;;;20.42;48.19
55660;BME280;41534;53.550;9.964;2024-02-15T08:18:25;101252.38;;;20.41;47.97
55660;BME280;41534;53.550;9.964;2024-02-15T08:21:32;101252.53;;;20.40;48.18
55660;BME280;41534;53.550;9.964;2024-02-15T08:24:33;101259.00;;;20.39;48.10
55660;BME280;41534;53.550;9.964;2024-02-15T08:27:33;101252.72;;;20.38;48.05
55660;BME280;41534;53.550;9.964;2024-02-15T08:30:34;101251.03;;;20.37;48.08
55660;BME280;41534;53.550;9.964;2024-02-15T08:33:34;101253.56;;;20.39;48.10
55660;BME280;41534;53.550;9.964;2024-02-15T08:36:34;101246.25;;;20.39;48.12
55660;BME280;41534;53.550;9.964;2024-02-15T08:39:34;101243.84;;;20.44;47.98
55660;BME280;41534;53.550;9.964;2024-02-15T08:42:35;101241.06;;;20.53;48.06
55660;BME280;41534;53.550;9.964;2024-02-15T08:45:35;101239.59;;;20.65;48.25
55660;BME280;41534;53.550;9.964;2024-02-15T08:48:35;101240.28;;;20.82;48.48
55660;BME280;41534;53.550;9.964;2024-02-15T08:51:36;101241.47;;;21.02;48.41
55660;BME280;41534;53.550;9.964;2024-02-15T08:54:36;101229.56;;;21.18;48.30
55660;BME280;41534;53.550;9.964;2024-02-15T08:57:37;101240.47;;;21.32;48.19
55660;BME280;41534;53.550;9.964;2024-02-15T09:00:38;101230.81;;;21.45;48.37
55660;BME280;41534;53.550;9.964;2024-02-15T09:03:39;101228.25;;;21.58;47.92
55660;BME280;41534;53.550;9.964;2024-02-15T09:06:39;101226.91;;;21.68;48.08
55660;BME280;41534;53.550;9.964;2024-02-15T09:09:39;101229.16;;;21.80;48.04
55660;BME280;41534;53.550;9.964;2024-02-15T09:12:41;101230.97;;;21.87;47.95
55660;BME280;41534;53.550;9.964;2024-02-15T09:15:42;101234.41;;;21.96;47.82
55660;BME280;41534;53.550;9.964;2024-02-15T09:18:42;101237.91;;;22.05;47.94
55660;BME280;41534;53.550;9.964;2024-02-15T09:21:42;101235.88;;;22.13;47.94
55660;BME280;41534;53.550;9.964;2024-02-15T09:24:42;101230.50;;;22.20;47.64
55660;BME280;41534;53.550;9.964;2024-02-15T09:27:43;101233.31;;;22.26;47.88
55660;BME280;41534;53.550;9.964;2024-02-15T09:30:44;101225.16;;;22.33;47.61
55660;BME280;41534;53.550;9.964;2024-02-15T09:33:44;101233.63;;;22.38;47.94
55660;BME280;41534;53.550;9.964;2024-02-15T09:36:44;101229.28;;;22.44;47.62
55660;BME280;41534;53.550;9.964;2024-02-15T09:39:45;101235.84;;;22.49;47.61
55660;BME280;41534;53.550;9.964;2024-02-15T09:42:46;101234.19;;;22.55;47.61
55660;BME280;41534;53.550;9.964;2024-02-15T09:45:47;101231.94;;;22.59;47.43
55660;BME280;41534;53.550;9.964;2024-02-15T09:48:51;101230.28;;;22.64;47.68
55660;BME280;41534;53.550;9.964;2024-02-15T09:51:51;101239.78;;;22.68;47.60
55660;BME280;41534;53.550;9.964;2024-02-15T09:54:53;101233.06;;;22.71;47.24
55660;BME280;41534;53.550;9.964;2024-02-15T09:57:54;101236.94;;;22.76;47.27
55660;BME280;41534;53.550;9.964;2024-02-15T10:00:55;101235.13;;;22.83;47.41
55660;BME280;41534;53.550;9.964;2024-02-15T10:03:55;101238.72;;;22.91;47.30
55660;BME280;41534;53.550;9.964;2024-02-15T10:06:55;101239.84;;;22.96;47.03
55660;BME280;41534;53.550;9.964;2024-02-15T10:09:56;101239.88;;;23.03;47.40
55660;BME280;41534;53.550;9.964;2024-02-15T10:12:57;101246.47;;;23.08;47.31
55660;BME280;41534;53.550;9.964;2024-02-15T10:15:57;101247.53;;;23.14;47.16
55660;BME280;41534;53.550;9.964;2024-02-15T10:19:09;101242.50;;;23.17;47.12
55660;BME280;41534;53.550;9.964;2024-02-15T10:22:10;101248.22;;;23.23;46.89
55660;BME280;41534;53.550;9.964;2024-02-15T10:25:12;101237.75;;;23.26;46.96
55660;BME280;41534;53.550;9.964;2024-02-15T10:28:14;101243.66;;;23.30;47.04
55660;BME280;41534;53.550;9.964;2024-02-15T10:31:14;101241.16;;;23.35;46.81
55660;BME280;41534;53.550;9.964;2024-02-15T10:34:14;101231.69;;;23.37;46.85
55660;BME280;41534;53.550;9.964;2024-02-15T10:37:15;101243.47;;;23.38;46.66
55660;BME280;41534;53.550;9.964;2024-02-15T10:40:19;101235.69;;;23.35;46.45
55660;BME280;41534;53.550;9.964;2024-02-15T10:43:20;101236.94;;;23.32;46.44
55660;BME280;41534;53.550;9.964;2024-02-15T10:46:21;101236.03;;;23.25;46.45
55660;BME280;41534;53.550;9.964;2024-02-15T10:49:24;101234.50;;;23.16;46.41
55660;BME280;41534;53.550;9.964;2024-02-15T10:52:27;101227.56;;;23.13;46.43
55660;BME280;41534;53.550;9.964;2024-02-15T10:55:38;101222.50;;;23.10;46.89
55660;BME280;41534;53.550;9.964;2024-02-15T10:58:46;101225.59;;;23.07;46.70
55660;BME280;41534;53.550;9.964;2024-02-15T11:01:49;101214.88;;;23.06;46.68
55660;BME280;41534;53.550;9.964;2024-02-15T11:04:53;101223.28;;;23.04;46.78
55660;BME280;41534;53.550;9.964;2024-02-15T11:07:53;101223.47;;;23.03;46.83
55660;BME280;41534;53.550;9.964;2024-02-15T11:10:54;101220.94;;;23.01;46.92
55660;BME280;41534;53.550;9.964;2024-02-15T11:14:27;101211.72;;;23.02;46.96
55660;BME280;41534;53.550;9.964;2024-02-15T11:23:43;101213.72;;;23.22;47.18
55660;BME280;41534;53.550;9.964;2024-02-15T11:26:45;101212.53;;;23.31;47.24
55660;BME280;41534;53.550;9.964;2024-02-15T11:29:51;101201.59;;;23.37;47.21
55660;BME280;41534;53.550;9.964;2024-02-15T11:32:52;101200.81;;;23.43;47.29
55660;BME280;41534;53.550;9.964;2024-02-15T11:36:12;101205.63;;;23.41;45.73
55660;BME280;41534;53.550;9.964;2024-02-15T11:39:58;101204.63;;;22.59;45.96
55660;BME280;41534;53.550;9.964;2024-02-15T11:42:59;101202.09;;;22.00;47.16
55660;BME280;41534;53.550;9.964;2024-02-15T11:46:00;101203.53;;;21.45;48.53
55660;BME280;41534;53.550;9.964;2024-02-15T11:49:00;101196.38;;;21.14;48.96
55660;BME280;41534;53.550;9.964;2024-02-15T11:52:08;101196.19;;;21.16;49.47
55660;BME280;41534;53.550;9.964;2024-02-15T11:55:09;101185.78;;;21.34;49.81
55660;BME280;41534;53.550;9.964;2024-02-15T11:58:10;101182.75;;;21.58;49.20
55660;BME280;41534;53.550;9.964;2024-02-15T12:01:11;101180.50;;;21.83;48.95
55660;BME280;41534;53.550;9.964;2024-02-15T12:04:12;101180.59;;;22.05;48.80
55660;BME280;41534;53.550;9.964;2024-02-15T12:07:14;101180.31;;;22.21;48.68
55660;BME280;41534;53.550;9.964;2024-02-15T12:10:18;101172.91;;;22.36;48.43
55660;BME280;41534;53.550;9.964;2024-02-15T12:13:18;101178.22;;;22.44;48.52
55660;BME280;41534;53.550;9.964;2024-02-15T12:16:19;101169.03;;;22.52;48.73
55660;BME280;41534;53.550;9.964;2024-02-15T12:19:19;101168.47;;;22.56;48.23
55660;BME280;41534;53.550;9.964;2024-02-15T12:22:21;101170.81;;;22.60;48.35
55660;BME280;41534;53.550;9.964;2024-02-15T12:25:22;101165.13;;;22.61;48.37
55660;BME280;41534;53.550;9.964;2024-02-15T12:28:22;101164.75;;;22.64;48.05
55660;BME280;41534;53.550;9.964;2024-02-15T12:31:24;101164.75;;;22.64;48.23
55660;BME280;41534;53.550;9.964;2024-02-15T12:34:25;101166.63;;;22.64;48.29
55660;BME280;41534;53.550;9.964;2024-02-15T12:37:25;101158.44;;;22.64;48.17
55660;BME280;41534;53.550;9.964;2024-02-15T12:40:31;101162.84;;;22.65;48.20
55660;BME280;41534;53.550;9.964;2024-02-15T12:43:31;101155.06;;;22.62;48.37
55660;BME280;41534;53.550;9.964;2024-02-15T12:46:32;101152.53;;;22.60;48.18
55660;BME280;41534;53.550;9.964;2024-02-15T12:49:32;101155.06;;;22.62;48.40
55660;BME280;41534;53.550;9.964;2024-02-15T12:52:37;101150.00;;;22.59;47.84
55660;BME280;41534;53.550;9.964;2024-02-15T12:55:39;101153.78;;;22.58;47.96
55660;BME280;41534;53.550;9.964;2024-02-15T12:58:39;101152.09;;;22.56;47.97
55660;BME280;41534;53.550;9.964;2024-02-15T13:01:40;101150.56;;;22.54;48.12
55660;BME280;41534;53.550;9.964;2024-02-15T13:04:40;101148.03;;;22.52;48.13
55660;BME280;41534;53.550;9.964;2024-02-15T13:07:41;101145.50;;;22.51;48.09
55660;BME280;41534;53.550;9.964;2024-02-15T13:10:41;101141.28;;;22.48;48.19
55660;BME280;41534;53.550;9.964;2024-02-15T13:13:41;101144.22;;;22.47;48.47
55660;BME280;41534;53.550;9.964;2024-02-15T13:16:42;101142.53;;;22.46;48.07
55660;BME280;41534;53.550;9.964;2024-02-15T13:19:46;101138.31;;;22.43;48.06
55660;BME280;41534;53.550;9.964;2024-02-15T13:22:47;101144.81;;;22.42;48.16
55660;BME280;41534;53.550;9.964;2024-02-15T13:25:48;101131.38;;;22.41;48.15
55660;BME280;41534;53.550;9.964;2024-02-15T13:28:49;101134.28;;;22.39;48.22
55660;BME280;41534;53.550;9.964;2024-02-15T13:31:49;101131.72;;;22.38;48.26
55660;BME280;41534;53.550;9.964;2024-02-15T13:34:49;101130.03;;;22.37;48.17
55660;BME280;41534;53.550;9.964;2024-02-15T13:37:50;101128.56;;;22.34;48.09
55660;BME280;41534;53.550;9.964;2024-02-15T13:40:51;101130.44;;;22.34;48.39
55660;BME280;41534;53.550;9.964;2024-02-15T13:43:51;101122.47;;;22.32;48.04
55660;BME280;41534;53.550;9.964;2024-02-15T13:46:51;101118.03;;;22.31;48.26
55660;BME280;41534;53.550;9.964;2024-02-15T13:49:51;101120.13;;;22.29;48.27
55660;BME280;41534;53.550;9.964;2024-02-15T13:52:52;101121.16;;;22.28;48.25
55660;BME280;41534;53.550;9.964;2024-02-15T13:55:52;101121.38;;;22.26;48.19
55660;BME280;41534;53.550;9.964;2024-02-15T13:58:52;101116.09;;;22.25;48.40
55660;BME280;41534;53.550;9.964;2024-02-15T14:01:53;101119.03;;;22.23;48.40
55660;BME280;41534;53.550;9.964;2024-02-15T14:04:53;101119.38;;;21.99;47.99
55660;BME280;41534;53.550;9.964;2024-02-15T14:08:03;101123.22;;;21.62;48.43
55660;BME280;41534;53.550;9.964;2024-02-15T14:11:03;101117.81;;;21.18;49.09
55660;BME280;41534;53.550;9.964;2024-02-15T14:14:05;101112.19;;;20.90;49.53
55660;BME280;41534;53.550;9.964;2024-02-15T14:17:05;101119.91;;;20.71;49.82
55660;BME280;41534;53.550;9.964;2024-02-15T14:20:06;101115.84;;;20.67;49.93
55660;BME280;41534;53.550;9.964;2024-02-15T14:23:06;101110.03;;;20.70;50.00
55660;BME280;41534;53.550;9.964;2024-02-15T14:26:07;101111.28;;;20.83;50.16
55660;BME280;41534;53.550;9.964;2024-02-15T14:29:07;101110.19;;;20.98;50.25
55660;BME280;41534;53.550;9.964;2024-02-15T14:32:07;101108.78;;;21.17;50.13
55660;BME280;41534;53.550;9.964;2024-02-15T14:35:08;101106.16;;;21.39;49.82
55660;BME280;41534;53.550;9.964;2024-02-15T14:38:09;101100.75;;;21.60;49.92
55660;BME280;41534;53.550;9.964;2024-02-15T14:41:11;101112.50;;;21.82;49.58
55660;BME280;41534;53.550;9.964;2024-02-15T14:44:11;101105.75;;;21.99;49.20
55660;BME280;41534;53.550;9.964;2024-02-15T14:47:11;101098.56;;;22.13;49.31
55660;BME280;41534;53.550;9.964;2024-02-15T14:50:12;101097.84;;;22.25;49.24
55660;BME280;41534;53.550;9.964;2024-02-15T14:53:12;101097.28;;;22.37;48.73
55660;BME280;41534;53.550;9.964;2024-02-15T14:56:13;101096.09;;;22.46;49.01
55660;BME280;41534;53.550;9.964;2024-02-15T14:59:13;101102.03;;;22.56;48.89
55660;BME280;41534;53.550;9.964;2024-02-15T15:02:13;101100.00;;;22.65;48.71
55660;BME280;41534;53.550;9.964;2024-02-15T15:05:14;101102.78;;;22.71;48.05
55660;BME280;41534;53.550;9.964;2024-02-15T15:08:14;101094.00;;;22.76;48.57
55660;BME280;41534;53.550;9.964;2024-02-15T15:11:15;101092.75;;;22.78;48.21
55660;BME280;41534;53.550;9.964;2024-02-15T15:14:15;101096.97;;;22.81;48.62
55660;BME280;41534;53.550;9.964;2024-02-15T15:17:15;101099.53;;;22.82;48.16
55660;BME280;41534;53.550;9.964;2024-02-15T15:20:16;101102.84;;;22.78;48.12
55660;BME280;41534;53.550;9.964;2024-02-15T15:23:16;101106.56;;;22.70;47.97
55660;BME280;41534;53.550;9.964;2024-02-15T15:26:20;101102.34;;;22.68;48.20
55660;BME280;41534;53.550;9.964;2024-02-15T15:29:21;101099.63;;;22.68;48.49
55660;BME280;41534;53.550;9.964;2024-02-15T15:32:21;101094.78;;;22.70;48.29
55660;BME280;41534;53.550;9.964;2024-02-15T15:35:21;101094.16;;;22.68;48.27
55660;BME280;41534;53.550;9.964;2024-02-15T15:38:21;101102.53;;;22.66;48.41
55660;BME280;41534;53.550;9.964;2024-02-15T15:41:22;101098.97;;;22.66;48.34
55660;BME280;41534;53.550;9.964;2024-02-15T15:44:22;101091.81;;;22.65;48.37
55660;BME280;41534;53.550;9.964;2024-02-15T15:47:22;101094.34;;;22.66;48.26
55660;BME280;41534;53.550;9.964;2024-02-15T15:50:23;101097.53;;;22.70;48.61
55660;BME280;41534;53.550;9.964;2024-02-15T15:53:23;101094.22;;;22.74;48.30